sensor_id;sensor_type;location;lat;lon;timestamp;temperature;humidity
33460;DHT22;19795;53.160;6.612;2023-02-15T05:39:02;-1.50;99.90
33460;DHT22;19795;53.160;6.612;2023-02-15T05:41:29;-1.40;99.90
33460;DHT22;19795;53.160;6.612;2023-02-15T05:46:30;-1.50;99.90
33460;DHT22;19795;53.160;6.612;2023-02-15T05:48:55;-1.50;99.90
33460;DHT22;19795;53.160;6.612;2023-02-15T05:51:21;-1.50;99.90
33460;DHT22;19795;53.160;6.612;2023-02-15T05:53:47;-1.60;99.90
33460;DHT22;19795;53.160;6.612;2023-02-15T05:56:12;-1.50;99.90
33460;DHT22;19795;53.160;6.612;2023-02-15T05:58:40;-1.40;99.90
33460;DHT22;19795;53.160;6.612;2023-02-15T06:01:14;-1.30;99.90
33460;DHT22;19795;53.160;6.612;2023-02-15T06:03:40;-1.20;99.90
33460;DHT22;19795;53.160;6.612;2023-02-15T06:06:06;-1.20;99.90
33460;DHT22;19795;53.160;6.612;2023-02-15T06:08:33;-1.10;99.90
33460;DHT22;19795;53.160;6.612;2023-02-15T06:10:59;-1.00;99.90
33460;DHT22;19795;53.160;6.612;2023-02-15T06:13:26;-0.90;99.90
33460;DHT22;19795;53.160;6.612;2023-02-15T06:15:54;-0.90;99.90
33460;DHT22;19795;53.160;6.612;2023-02-15T06:18:21;-0.90;99.90
33460;DHT22;19795;53.160;6.612;2023-02-15T06:20:47;-0.80;99.90
33460;DHT22;19795;53.160;6.612;2023-02-15T06:23:12;-0.60;99.90
33460;DHT22;19795;53.160;6.612;2023-02-15T06:25:38;-0.40;99.90
33460;DHT22;19795;53.160;6.612;2023-02-15T06:28:04;-0.30;99.90
33460;DHT22;19795;53.160;6.612;2023-02-15T06:30:30;-0.40;99.90
33460;DHT22;19795;53.160;6.612;2023-02-15T06:32:56;-0.40;99.90
33460;DHT22;19795;53.160;6.612;2023-02-15T06:35:21;-0.30;99.90
33460;DHT22;19795;53.160;6.612;2023-02-15T06:37:47;-0.30;99.90
33460;DHT22;19795;53.160;6.612;2023-02-15T06:40:13;-0.30;99.90
33460;DHT22;19795;53.160;6.612;2023-02-15T06:42:39;-0.30;99.90
33460;DHT22;19795;53.160;6.612;2023-02-15T06:45:06;-0.40;99.90
33460;DHT22;19795;53.160;6.612;2023-02-15T06:47:32;-0.40;99.90
33460;DHT22;19795;53.160;6.612;2023-02-15T06:49:57;-0.40;99.90
33460;DHT22;19795;53.160;6.612;2023-02-15T06:52:23;-0.40;99.90
33460;DHT22;19795;53.160;6.612;2023-02-15T06:54:49;-0.30;99.90
33460;DHT22;19795;53.160;6.612;2023-02-15T06:57:14;-0.20;99.90
33460;DHT22;19795;53.160;6.612;2023-02-15T06:59:40;-0.20;99.90
33460;DHT22;19795;53.160;6.612;2023-02-15T07:02:06;-0.20;99.90
33460;DHT22;19795;53.160;6.612;2023-02-15T07:04:31;-0.10;99.90
33460;DHT22;19795;53.160;6.612;2023-02-15T07:06:57;-0.10;99.90
33460;DHT22;19795;53.160;6.612;2023-02-15T07:09:23;-0.10;99.90
33460;DHT22;19795;53.160;6.612;2023-02-15T07:11:49;0.00;99.90
33460;DHT22;19795;53.160;6.612;2023-02-15T07:14:33;0.00;99.90
33460;DHT22;19795;53.160;6.612;2023-02-15T07:16:58;-0.10;99.90
33460;DHT22;19795;53.160;6.612;2023-02-15T07:19:24;0.00;99.90
33460;DHT22;19795;53.160;6.612;2023-02-15T07:21:50;0.10;99.90
33460;DHT22;19795;53.160;6.612;2023-02-15T07:24:15;0.20;99.90
33460;DHT22;19795;53.160;6.612;2023-02-15T07:26:41;0.20;99.90
33460;DHT22;19795;53.160;6.612;2023-02-15T07:29:07;0.30;99.90
33460;DHT22;19795;53.160;6.612;2023-02-15T07:31:32;0.30;99.90
33460;DHT22;19795;53.160;6.612;2023-02-15T07:33:58;0.40;99.90
33460;DHT22;19795;53.160;6.612;2023-02-15T07:36:23;0.40;99.90
33460;DHT22;19795;53.160;6.612;2023-02-15T07:38:49;0.50;99.90
33460;DHT22;19795;53.160;6.612;2023-02-15T07:41:15;0.50;99.90
33460;DHT22;19795;53.160;6.612;2023-02-15T07:43:43;0.60;99.90
33460;DHT22;19795;53.160;6.612;2023-02-15T07:46:13;0.70;99.90
33460;DHT22;19795;53.160;6.612;2023-02-15T07:48:40;0.60;99.90
33460;DHT22;19795;53.160;6.612;2023-02-15T07:51:08;1.30;99.90
33460;DHT22;19795;53.160;6.612;2023-02-15T07:53:34;0.90;99.90
33460;DHT22;19795;53.160;6.612;2023-02-15T07:56:01;1.10;99.90
33460;DHT22;19795;53.160;6.612;2023-02-15T07:58:27;1.10;99.90
33460;DHT22;19795;53.160;6.612;2023-02-15T08:01:12;1.20;99.90
33460;DHT22;19795;53.160;6.612;2023-02-15T08:03:38;1.60;99.90
33460;DHT22;19795;53.160;6.612;2023-02-15T08:06:04;1.30;99.90
33460;DHT22;19795;53.160;6.612;2023-02-15T08:08:29;1.30;99.90
33460;DHT22;19795;53.160;6.612;2023-02-15T08:11:02;1.40;99.90
33460;DHT22;19795;53.160;6.612;2023-02-15T08:13:48;1.40;99.90
33460;DHT22;19795;53.160;6.612;2023-02-15T08:18:57;1.60;99.90
33460;DHT22;19795;53.160;6.612;2023-02-15T08:21:26;1.80;99.90
33460;DHT22;19795;53.160;6.612;2023-02-15T08:23:52;1.80;99.90
33460;DHT22;19795;53.160;6.612;2023-02-15T08:26:18;1.80;99.90
33460;DHT22;19795;53.160;6.612;2023-02-15T08:28:44;1.90;99.90
33460;DHT22;19795;53.160;6.612;2023-02-15T08:31:11;1.90;99.90
33460;DHT22;19795;53.160;6.612;2023-02-15T08:33:38;2.10;99.90
33460;DHT22;19795;53.160;6.612;2023-02-15T08:36:11;2.20;99.90
33460;DHT22;19795;53.160;6.612;2023-02-15T08:38:36;2.20;99.90
33460;DHT22;19795;53.160;6.612;2023-02-15T08:41:14;2.20;99.90
33460;DHT22;19795;53.160;6.612;2023-02-15T08:43:40;2.30;99.90
33460;DHT22;19795;53.160;6.612;2023-02-15T08:46:08;2.40;99.90
33460;DHT22;19795;53.160;6.612;2023-02-15T08:48:33;2.50;99.90
33460;DHT22;19795;53.160;6.612;2023-02-15T08:51:04;2.60;99.90
33460;DHT22;19795;53.160;6.612;2023-02-15T08:53:31;2.60;99.90
33460;DHT22;19795;53.160;6.612;2023-02-15T08:55:57;2.50;99.90
33460;DHT22;19795;53.160;6.612;2023-02-15T08:58:24;2.60;99.90
33460;DHT22;19795;53.160;6.612;2023-02-15T09:00:50;2.70;99.90
33460;DHT22;19795;53.160;6.612;2023-02-15T09:03:16;3.00;99.90
33460;DHT22;19795;53.160;6.612;2023-02-15T09:05:41;2.90;99.90
33460;DHT22;19795;53.160;6.612;2023-02-15T09:08:07;2.80;99.90
33460;DHT22;19795;53.160;6.612;2023-02-15T09:10:33;2.80;99.90
33460;DHT22;19795;53.160;6.612;2023-02-15T09:12:59;3.00;99.90
33460;DHT22;19795;53.160;6.612;2023-02-15T09:15:24;3.00;99.90
33460;DHT22;19795;53.160;6.612;2023-02-15T09:17:50;2.90;99.90
33460;DHT22;19795;53.160;6.612;2023-02-15T09:20:16;3.10;99.90
33460;DHT22;19795;53.160;6.612;2023-02-15T09:22:41;3.10;99.90
33460;DHT22;19795;53.160;6.612;2023-02-15T09:25:07;3.10;99.90
33460;DHT22;19795;53.160;6.612;2023-02-15T09:27:33;3.30;99.90
33460;DHT22;19795;53.160;6.612;2023-02-15T09:29:59;3.30;99.90
33460;DHT22;19795;53.160;6.612;2023-02-15T09:32:25;3.40;99.90
33460;DHT22;19795;53.160;6.612;2023-02-15T09:34:51;3.50;99.90
33460;DHT22;19795;53.160;6.612;2023-02-15T09:37:16;3.60;99.90
33460;DHT22;19795;53.160;6.612;2023-02-15T09:39:42;3.90;99.90
33460;DHT22;19795;53.160;6.612;2023-02-15T09:50:59;4.30;99.90
33460;DHT22;19795;53.160;6.612;2023-02-15T09:53:50;4.40;99.90
33460;DHT22;19795;53.160;6.612;2023-02-15T09:56:42;4.50;99.90
33460;DHT22;19795;53.160;6.612;2023-02-15T10:11:02;5.20;99.90
33460;DHT22;19795;53.160;6.612;2023-02-15T10:19:24;6.10;99.90
33460;DHT22;19795;53.160;6.612;2023-02-15T10:22:21;6.20;99.90
33460;DHT22;19795;53.160;6.612;2023-02-15T10:25:02;6.20;99.90
33460;DHT22;19795;53.160;6.612;2023-02-15T10:27:50;6.50;99.90
33460;DHT22;19795;53.160;6.612;2023-02-15T10:30:31;6.90;99.90
33460;DHT22;19795;53.160;6.612;2023-02-15T10:33:02;7.20;99.90
33460;DHT22;19795;53.160;6.612;2023-02-15T10:38:38;7.40;99.90
33460;DHT22;19795;53.160;6.612;2023-02-15T10:41:12;7.70;99.90
33460;DHT22;19795;53.160;6.612;2023-02-15T10:43:59;7.80;99.90
33460;DHT22;19795;53.160;6.612;2023-02-15T10:49:49;8.50;99.90
33460;DHT22;19795;53.160;6.612;2023-02-15T10:52:25;8.90;99.90
33460;DHT22;19795;53.160;6.612;2023-02-15T10:55:26;9.50;99.90
33460;DHT22;19795;53.160;6.612;2023-02-15T11:00:45;10.00;99.90
33460;DHT22;19795;53.160;6.612;2023-02-15T11:06:08;10.00;99.90
33460;DHT22;19795;53.160;6.612;2023-02-15T11:08:54;10.40;99.90
33460;DHT22;19795;53.160;6.612;2023-02-15T11:11:27;10.00;99.90
33460;DHT22;19795;53.160;6.612;2023-02-15T11:14:00;9.90;99.90
33460;DHT22;19795;53.160;6.612;2023-02-15T11:16:42;10.00;99.90
33460;DHT22;19795;53.160;6.612;2023-02-15T11:19:25;10.30;99.90
33460;DHT22;19795;53.160;6.612;2023-02-15T11:21:57;10.80;99.90
33460;DHT22;19795;53.160;6.612;2023-02-15T11:24:26;10.70;99.90
33460;DHT22;19795;53.160;6.612;2023-02-15T11:27:04;10.60;99.90
33460;DHT22;19795;53.160;6.612;2023-02-15T11:37:45;10.60;99.90
33460;DHT22;19795;53.160;6.612;2023-02-15T11:40:23;10.80;99.90
33460;DHT22;19795;53.160;6.612;2023-02-15T11:42:52;11.00;99.90
33460;DHT22;19795;53.160;6.612;2023-02-15T11:45:30;10.90;99.90
33460;DHT22;19795;53.160;6.612;2023-02-15T11:47:57;11.10;99.90
33460;DHT22;19795;53.160;6.612;2023-02-15T11:50:26;10.90;99.90
33460;DHT22;19795;53.160;6.612;2023-02-15T11:52:59;11.00;99.90
33460;DHT22;19795;53.160;6.612;2023-02-15T11:55:27;10.90;99.90
33460;DHT22;19795;53.160;6.612;2023-02-15T12:00:32;10.60;99.90
33460;DHT22;19795;53.160;6.612;2023-02-15T12:03:22;10.60;99.90
33460;DHT22;19795;53.160;6.612;2023-02-15T12:05:57;10.70;99.90
33460;DHT22;19795;53.160;6.612;2023-02-15T12:08:24;10.80;99.90
33460;DHT22;19795;53.160;6.612;2023-02-15T12:11:07;11.00;99.90
33460;DHT22;19795;53.160;6.612;2023-02-15T12:13:57;10.90;99.90
33460;DHT22;19795;53.160;6.612;2023-02-15T12:16:24;10.80;99.90
33460;DHT22;19795;53.160;6.612;2023-02-15T12:18:53;11.00;99.90
33460;DHT22;19795;53.160;6.612;2023-02-15T12:21:33;10.80;99.90
33460;DHT22;19795;53.160;6.612;2023-02-15T12:24:28;10.90;99.90
33460;DHT22;19795;53.160;6.612;2023-02-15T12:27:02;10.90;99.90
33460;DHT22;19795;53.160;6.612;2023-02-15T12:29:50;10.90;99.90
33460;DHT22;19795;53.160;6.612;2023-02-15T12:32:24;10.80;99.90
33460;DHT22;19795;53.160;6.612;2023-02-15T12:35:00;10.60;99.90
33460;DHT22;19795;53.160;6.612;2023-02-15T12:37:29;10.60;99.90
33460;DHT22;19795;53.160;6.612;2023-02-15T12:39:58;10.70;99.90
33460;DHT22;19795;53.160;6.612;2023-02-15T12:42:26;10.90;99.90
33460;DHT22;19795;53.160;6.612;2023-02-15T12:45:01;11.10;99.90
33460;DHT22;19795;53.160;6.612;2023-02-15T12:47:28;11.40;99.90
33460;DHT22;19795;53.160;6.612;2023-02-15T12:50:13;11.60;99.90
33460;DHT22;19795;53.160;6.612;2023-02-15T12:52:49;11.60;99.90
33460;DHT22;19795;53.160;6.612;2023-02-15T12:57:44;11.80;99.90
33460;DHT22;19795;53.160;6.612;2023-02-15T13:02:50;11.70;99.90
33460;DHT22;19795;53.160;6.612;2023-02-15T13:05:18;11.60;99.90
33460;DHT22;19795;53.160;6.612;2023-02-15T13:07:49;11.50;99.90
33460;DHT22;19795;53.160;6.612;2023-02-15T13:10:29;11.50;99.90
33460;DHT22;19795;53.160;6.612;2023-02-15T13:12:56;11.50;99.90
33460;DHT22;19795;53.160;6.612;2023-02-15T13:15:30;11.40;99.90
33460;DHT22;19795;53.160;6.612;2023-02-15T13:17:58;11.30;99.90
33460;DHT22;19795;53.160;6.612;2023-02-15T13:20:25;11.40;99.90
33460;DHT22;19795;53.160;6.612;2023-02-15T13:22:59;11.30;99.90
33460;DHT22;19795;53.160;6.612;2023-02-15T13:25:29;11.30;99.90
33460;DHT22;19795;53.160;6.612;2023-02-15T13:28:01;11.40;99.90
33460;DHT22;19795;53.160;6.612;2023-02-15T13:30:36;11.40;99.90
33460;DHT22;19795;53.160;6.612;2023-02-15T13:47:30;11.70;99.90
33460;DHT22;19795;53.160;6.612;2023-02-15T14:01:57;11.20;99.90
33460;DHT22;19795;53.160;6.612;2023-02-15T14:07:22;11.50;99.90
33460;DHT22;19795;53.160;6.612;2023-02-15T14:10:02;11.50;99.90
33460;DHT22;19795;53.160;6.612;2023-02-15T14:26:52;11.50;99.90
33460;DHT22;19795;53.160;6.612;2023-02-15T14:32:03;11.50;99.90
33460;DHT22;19795;53.160;6.612;2023-02-15T14:34:46;11.50;99.90
33460;DHT22;19795;53.160;6.612;2023-02-15T14:37:18;11.50;99.90
33460;DHT22;19795;53.160;6.612;2023-02-15T14:39:51;11.60;99.90
33460;DHT22;19795;53.160;6.612;2023-02-15T14:47:44;11.70;99.90
33460;DHT22;19795;53.160;6.612;2023-02-15T14:50:38;11.50;99.90
33460;DHT22;19795;53.160;6.612;2023-02-15T14:58:36;11.10;99.90
33460;DHT22;19795;53.160;6.612;2023-02-15T15:01:26;11.00;99.90
33460;DHT22;19795;53.160;6.612;2023-02-15T15:03:55;10.90;99.90
33460;DHT22;19795;53.160;6.612;2023-02-15T15:06:30;10.80;99.90
33460;DHT22;19795;53.160;6.612;2023-02-15T15:09:05;10.70;99.90
33460;DHT22;19795;53.160;6.612;2023-02-15T15:14:08;10.40;99.90
33460;DHT22;19795;53.160;6.612;2023-02-15T15:19:09;10.30;99.90
33460;DHT22;19795;53.160;6.612;2023-02-15T15:22:03;10.20;99.90
33460;DHT22;19795;53.160;6.612;2023-02-15T15:46:58;9.40;99.90
33460;DHT22;19795;53.160;6.612;2023-02-15T15:49:31;9.40;99.90
33460;DHT22;19795;53.160;6.612;2023-02-15T15:52:01;9.30;99.90
33460;DHT22;19795;53.160;6.612;2023-02-15T15:54:27;9.30;99.90
33460;DHT22;19795;53.160;6.612;2023-02-15T15:57:02;9.20;99.90
33460;DHT22;19795;53.160;6.612;2023-02-15T15:59:31;9.00;99.90
33460;DHT22;19795;53.160;6.612;2023-02-15T16:02:04;8.90;99.90
33460;DHT22;19795;53.160;6.612;2023-02-15T16:04:33;8.80;99.90
33460;DHT22;19795;53.160;6.612;2023-02-15T16:10:23;8.50;99.90
33460;DHT22;19795;53.160;6.612;2023-02-15T16:12:50;8.40;99.90
33460;DHT22;19795;53.160;6.612;2023-02-15T16:15:33;8.40;99.90
33460;DHT22;19795;53.160;6.612;2023-02-15T16:18:00;8.30;99.90
33460;DHT22;19795;53.160;6.612;2023-02-15T16:20:27;8.20;99.90
33460;DHT22;19795;53.160;6.612;2023-02-15T16:26:05;8.00;99.90
33460;DHT22;19795;53.160;6.612;2023-02-15T16:28:34;7.90;99.90
33460;DHT22;19795;53.160;6.612;2023-02-15T16:31:11;7.70;99.90
33460;DHT22;19795;53.160;6.612;2023-02-15T16:33:39;7.60;99.90
33460;DHT22;19795;53.160;6.612;2023-02-15T16:36:28;7.50;99.90
33460;DHT22;19795;53.160;6.612;2023-02-15T16:41:26;7.00;99.90
33460;DHT22;19795;53.160;6.612;2023-02-15T16:43:54;7.10;99.90
33460;DHT22;19795;53.160;6.612;2023-02-15T16:46:36;7.00;99.90
33460;DHT22;19795;53.160;6.612;2023-02-15T16:49:08;6.80;99.90
33460;DHT22;19795;53.160;6.612;2023-02-15T16:51:42;6.70;99.90
33460;DHT22;19795;53.160;6.612;2023-02-15T16:54:17;6.60;99.90
33460;DHT22;19795;53.160;6.612;2023-02-15T16:56:44;6.40;99.90
33460;DHT22;19795;53.160;6.612;2023-02-15T16:59:30;6.40;99.90
33460;DHT22;19795;53.160;6.612;2023-02-15T17:01:57;6.30;99.90
33460;DHT22;19795;53.160;6.612;2023-02-15T17:04:30;6.10;99.90
33460;DHT22;19795;53.160;6.612;2023-02-15T17:07:04;6.00;99.90
33460;DHT22;19795;53.160;6.612;2023-02-15T17:09:33;5.90;99.90
33460;DHT22;19795;53.160;6.612;2023-02-15T17:12:00;5.80;99.90
33460;DHT22;19795;53.160;6.612;2023-02-15T17:14:29;5.70;99.90
33460;DHT22;19795;53.160;6.612;2023-02-15T17:19:33;5.70;99.90
33460;DHT22;19795;53.160;6.612;2023-02-15T17:22:06;5.50;99.90
33460;DHT22;19795;53.160;6.612;2023-02-15T17:24:42;5.50;99.90
33460;DHT22;19795;53.160;6.612;2023-02-15T17:29:46;5.50;99.90
33460;DHT22;19795;53.160;6.612;2023-02-15T17:32:17;5.50;99.90
33460;DHT22;19795;53.160;6.612;2023-02-15T17:35:05;5.60;99.90
33460;DHT22;19795;53.160;6.612;2023-02-15T17:42:50;5.20;99.90
33460;DHT22;19795;53.160;6.612;2023-02-15T17:45:16;5.10;99.90
33460;DHT22;19795;53.160;6.612;2023-02-15T17:47:42;5.10;99.90
33460;DHT22;19795;53.160;6.612;2023-02-15T17:52:44;5.00;99.90
33460;DHT22;19795;53.160;6.612;2023-02-15T17:55:21;5.00;99.90
33460;DHT22;19795;53.160;6.612;2023-02-15T17:58:01;4.90;99.90
33460;DHT22;19795;53.160;6.612;2023-02-15T18:00:28;4.90;99.90
33460;DHT22;19795;53.160;6.612;2023-02-15T18:03:12;5.00;99.90
33460;DHT22;19795;53.160;6.612;2023-02-15T18:05:57;4.90;99.90
33460;DHT22;19795;53.160;6.612;2023-02-15T18:08:41;5.10;99.90
33460;DHT22;19795;53.160;6.612;2023-02-15T18:11:25;5.10;99.90
33460;DHT22;19795;53.160;6.612;2023-02-15T18:14:08;5.20;99.90
33460;DHT22;19795;53.160;6.612;2023-02-15T18:16:37;5.10;99.90
33460;DHT22;19795;53.160;6.612;2023-02-15T18:19:04;5.20;99.90
33460;DHT22;19795;53.160;6.612;2023-02-15T18:21:31;5.20;99.90
33460;DHT22;19795;53.160;6.612;2023-02-15T18:23:57;5.20;99.90
33460;DHT22;19795;53.160;6.612;2023-02-15T18:26:24;5.30;99.90
33460;DHT22;19795;53.160;6.612;2023-02-15T18:28:51;5.30;99.90
33460;DHT22;19795;53.160;6.612;2023-02-15T18:31:17;5.30;99.90
33460;DHT22;19795;53.160;6.612;2023-02-15T18:33:55;5.40;99.90
33460;DHT22;19795;53.160;6.612;2023-02-15T18:36:41;5.40;99.90
33460;DHT22;19795;53.160;6.612;2023-02-15T18:39:44;5.30;99.90
33460;DHT22;19795;53.160;6.612;2023-02-15T18:42:27;5.50;99.90
33460;DHT22;19795;53.160;6.612;2023-02-15T18:44:55;5.70;99.90
33460;DHT22;19795;53.160;6.612;2023-02-15T18:47:22;5.70;99.90
33460;DHT22;19795;53.160;6.612;2023-02-15T18:49:47;5.70;99.90
33460;DHT22;19795;53.160;6.612;2023-02-15T18:52:22;5.70;99.90
33460;DHT22;19795;53.160;6.612;2023-02-15T18:54:52;5.60;99.90
33460;DHT22;19795;53.160;6.612;2023-02-15T18:57:18;5.50;99.90
33460;DHT22;19795;53.160;6.612;2023-02-15T18:59:44;5.40;99.90
33460;DHT22;19795;53.160;6.612;2023-02-15T19:02:15;5.40;99.90
33460;DHT22;19795;53.160;6.612;2023-02-15T19:04:42;5.20;99.90
33460;DHT22;19795;53.160;6.612;2023-02-15T19:07:25;5.20;99.90
33460;DHT22;19795;53.160;6.612;2023-02-15T19:09:55;5.10;99.90
33460;DHT22;19795;53.160;6.612;2023-02-15T19:12:21;5.00;99.90
33460;DHT22;19795;53.160;6.612;2023-02-15T19:14:47;5.00;99.90
33460;DHT22;19795;53.160;6.612;2023-02-15T19:17:18;5.10;99.90
33460;DHT22;19795;53.160;6.612;2023-02-15T19:19:45;4.90;99.90
33460;DHT22;19795;53.160;6.612;2023-02-15T19:22:18;4.90;99.90
33460;DHT22;19795;53.160;6.612;2023-02-15T19:24:46;5.00;99.90
33460;DHT22;19795;53.160;6.612;2023-02-15T19:27:35;5.10;99.90
33460;DHT22;19795;53.160;6.612;2023-02-15T19:30:17;5.00;99.90
33460;DHT22;19795;53.160;6.612;2023-02-15T19:32:46;5.10;99.90
33460;DHT22;19795;53.160;6.612;2023-02-15T19:35:21;5.20;99.90
33460;DHT22;19795;53.160;6.612;2023-02-15T19:38:17;5.30;99.90
33460;DHT22;19795;53.160;6.612;2023-02-15T19:40:44;5.20;99.90
33460;DHT22;19795;53.160;6.612;2023-02-15T19:43:16;5.20;99.90
33460;DHT22;19795;53.160;6.612;2023-02-15T19:45:42;5.20;99.90
33460;DHT22;19795;53.160;6.612;2023-02-15T19:48:13;5.10;99.90
33460;DHT22;19795;53.160;6.612;2023-02-15T19:50:39;5.20;99.90
33460;DHT22;19795;53.160;6.612;2023-02-15T19:53:08;5.30;99.90
33460;DHT22;19795;53.160;6.612;2023-02-15T19:55:39;5.30;99.90
33460;DHT22;19795;53.160;6.612;2023-02-15T19:58:10;5.20;99.90
33460;DHT22;19795;53.160;6.612;2023-02-15T20:00:36;5.20;99.90
33460;DHT22;19795;53.160;6.612;2023-02-15T20:03:02;5.20;99.90
33460;DHT22;19795;53.160;6.612;2023-02-15T20:05:29;5.20;99.90
33460;DHT22;19795;53.160;6.612;2023-02-15T20:07:55;5.20;99.90
33460;DHT22;19795;53.160;6.612;2023-02-15T20:10:27;5.20;99.90
33460;DHT22;19795;53.160;6.612;2023-02-15T20:12:53;5.30;99.90
33460;DHT22;19795;53.160;6.612;2023-02-15T20:17:51;5.40;99.90
33460;DHT22;19795;53.160;6.612;2023-02-15T20:20:20;5.50;99.90
33460;DHT22;19795;53.160;6.612;2023-02-15T20:22:48;5.50;99.90
33460;DHT22;19795;53.160;6.612;2023-02-15T20:25:30;5.50;99.90
33460;DHT22;19795;53.160;6.612;2023-02-15T20:27:57;5.50;99.90
33460;DHT22;19795;53.160;6.612;2023-02-15T20:30:29;5.50;99.90
33460;DHT22;19795;53.160;6.612;2023-02-15T20:32:55;5.40;99.90
33460;DHT22;19795;53.160;6.612;2023-02-15T20:35:25;5.40;99.90
33460;DHT22;19795;53.160;6.612;2023-02-15T20:37:54;5.50;99.90
